Time;durP1;ratioP1;P1;durP2;ratioP2;P2;SDS_P1;SDS_P2;PMS_P1;PMS_P2;Temp;Humidity;BMP_temperature;BMP_pressure;BME280_temperature;BME280_humidity;BME280_pressure;Samples;Min_cycle;Max_cycle;Signal;HPM_P1;HPM_P2
2021/07/14 04:33:12;;;;;;;3.33;2.00;;;15.20;99.90;;;;;;6161856;23;20202;-90
2021/07/14 04:35:40;;;;;;;2.85;1.67;;;15.10;99.60;;;;;;6156117;23;20160;-89
2021/07/14 04:38:07;;;;;;;2.17;1.88;;;15.10;99.80;;;;;;6154438;23;20203;-90
2021/07/14 04:40:34;;;;;;;2.65;1.75;;;15.10;99.40;;;;;;6155046;23;20206;-90
2021/07/14 04:43:01;;;;;;;2.38;1.77;;;15.10;99.10;;;;;;6155171;23;20272;-88
2021/07/14 04:45:28;;;;;;;4.88;1.65;;;15.00;98.40;;;;;;6154428;23;20258;-90
2021/07/14 04:47:54;;;;;;;1.50;1.40;;;15.20;98.10;;;;;;6153961;23;20600;-91
2021/07/14 04:50:23;;;;;;;2.13;1.90;;;15.20;97.70;;;;;;6154138;23;20544;-90
2021/07/14 04:52:50;;;;;;;1.83;1.50;;;15.30;97.00;;;;;;6153655;23;20203;-87
2021/07/14 04:55:17;;;;;;;2.47;1.60;;;15.30;97.00;;;;;;6153915;23;20203;-89
2021/07/14 04:57:44;;;;;;;7.28;1.92;;;15.40;97.00;;;;;;6154921;23;20227;-90
2021/07/14 05:00:16;;;;;;;2.17;1.55;;;15.50;97.30;;;;;;6155884;23;20259;-89
2021/07/14 05:02:43;;;;;;;3.78;1.63;;;15.60;96.50;;;;;;6154713;23;20289;-88
2021/07/14 05:05:10;;;;;;;3.13;1.55;;;15.50;95.70;;;;;;6129952;23;20238;-88
2021/07/14 05:07:39;;;;;;;4.07;1.70;;;15.60;95.70;;;;;;6155829;23;20238;-89
2021/07/14 05:10:49;;;;;;;1.70;1.60;;;15.70;95.60;;;;;;6156704;23;20176;-89
2021/07/14 05:13:17;;;;;;;1.50;1.27;;;15.70;95.10;;;;;;6156843;23;20261;-90
2021/07/14 05:15:45;;;;;;;2.20;1.67;;;15.70;94.70;;;;;;6157638;23;20187;-89
2021/07/14 05:18:12;;;;;;;1.92;1.50;;;15.80;94.40;;;;;;6156730;23;20282;-90
2021/07/14 05:20:44;;;;;;;4.05;1.67;;;15.80;94.20;;;;;;6157747;23;20545;-89
2021/07/14 05:23:12;;;;;;;2.40;1.67;;;15.70;93.40;;;;;;6158687;23;20282;-90
2021/07/14 05:25:39;;;;;;;5.00;2.00;;;15.70;94.00;;;;;;6158650;23;20227;-88
2021/07/14 05:28:06;;;;;;;1.77;1.65;;;15.80;94.00;;;;;;6158796;23;20716;-88
2021/07/14 05:30:33;;;;;;;2.72;1.80;;;15.80;94.10;;;;;;6169213;23;20183;-88
2021/07/14 05:33:00;;;;;;;1.75;1.65;;;15.80;94.10;;;;;;6156627;23;20227;-87
2021/07/14 05:35:27;;;;;;;2.97;1.55;;;15.90;93.60;;;;;;6158845;23;20219;-86
2021/07/14 05:37:54;;;;;;;1.92;1.60;;;16.00;93.80;;;;;;6157681;23;20203;-87
2021/07/14 05:40:23;;;;;;;2.03;1.83;;;16.10;93.50;;;;;;6157141;23;20222;-87
2021/07/14 05:42:50;;;;;;;1.90;1.67;;;16.00;92.80;;;;;;6156901;23;20293;-88
2021/07/14 05:45:17;;;;;;;2.17;1.67;;;16.00;93.30;;;;;;6155340;23;20555;-89
2021/07/14 05:47:45;;;;;;;1.70;1.60;;;16.20;93.10;;;;;;6155835;23;20204;-87
2021/07/14 05:53:37;;;;;;;5.43;1.70;;;16.60;91.10;;;;;;6158893;23;20214;-87
2021/07/14 05:56:06;;;;;;;2.10;1.90;;;16.70;91.30;;;;;;6159461;23;20175;-89
2021/07/14 05:58:39;;;;;;;1.77;1.50;;;17.00;90.60;;;;;;6156722;23;20244;-90
2021/07/14 06:01:07;;;;;;;1.77;1.67;;;16.90;90.30;;;;;;6158243;23;20195;-88
2021/07/14 06:03:42;;;;;;;1.95;1.60;;;16.80;89.00;;;;;;6157329;23;20669;-87
2021/07/14 06:06:10;;;;;;;1.75;1.60;;;16.70;88.90;;;;;;6158216;23;20170;-87
2021/07/14 06:08:37;;;;;;;1.98;1.65;;;16.70;90.30;;;;;;6157183;23;20258;-88
2021/07/14 06:11:05;;;;;;;3.15;1.60;;;16.50;90.30;;;;;;6158195;23;20262;-87
2021/07/14 06:13:43;;;;;;;1.65;1.50;;;16.20;90.70;;;;;;6157408;23;20286;-87
2021/07/14 06:16:10;;;;;;;1.38;1.27;;;16.20;91.80;;;;;;6158352;23;20230;-88
2021/07/14 06:18:37;;;;;;;1.60;1.50;;;16.10;91.70;;;;;;6158307;23;20265;-87
2021/07/14 06:21:05;;;;;;;3.33;1.92;;;15.90;92.90;;;;;;6156157;23;20695;-91
2021/07/14 06:23:32;;;;;;;3.17;1.80;;;15.90;93.10;;;;;;6152779;23;20230;-90
2021/07/14 06:25:59;;;;;;;4.25;1.92;;;15.80;93.80;;;;;;6154468;23;20163;-90
2021/07/14 06:28:28;;;;;;;3.17;1.73;;;15.60;93.30;;;;;;6153454;23;20282;-89
2021/07/14 06:30:55;;;;;;;9.90;2.22;;;15.60;93.10;;;;;;6153078;23;20254;-90
2021/07/14 06:33:22;;;;;;;3.58;2.20;;;15.70;92.90;;;;;;6152393;23;20222;-89
2021/07/14 06:35:52;;;;;;;2.85;1.83;;;15.80;92.00;;;;;;6153687;23;20484;-90
2021/07/14 06:38:20;;;;;;;5.55;1.80;;;15.90;92.10;;;;;;6152797;23;20274;-89
2021/07/14 06:40:48;;;;;;;4.88;1.95;;;16.10;92.30;;;;;;6153465;23;20221;-89
2021/07/14 06:43:16;;;;;;;2.47;2.05;;;16.10;91.70;;;;;;6152006;23;20207;-89
2021/07/14 06:45:47;;;;;;;6.38;2.67;;;16.20;91.70;;;;;;6153647;23;20175;-89
2021/07/14 06:48:16;;;;;;;6.43;1.98;;;16.40;92.10;;;;;;6152430;23;20207;-92
2021/07/14 06:50:43;;;;;;;2.95;2.05;;;16.40;91.60;;;;;;6154668;23;20218;-89
2021/07/14 06:53:49;;;;;;;2.20;1.98;;;16.50;90.70;;;;;;6154939;23;20270;-89
2021/07/14 06:56:34;;;;;;;4.28;1.70;;;16.40;91.00;;;;;;6156872;23;20199;-88
2021/07/14 06:59:01;;;;;;;1.80;1.70;;;16.40;91.80;;;;;;6157437;23;20234;-88
2021/07/14 07:01:29;;;;;;;6.03;2.30;;;16.40;91.50;;;;;;6157781;23;20202;-88
2021/07/14 07:03:56;;;;;;;3.83;2.08;;;16.40;91.80;;;;;;6156931;23;20294;-90
2021/07/14 07:06:29;;;;;;;4.60;2.20;;;16.60;91.60;;;;;;6156386;23;20261;-90
2021/07/14 07:08:56;;;;;;;3.97;2.00;;;16.60;91.80;;;;;;6154023;23;20203;-89
2021/07/14 07:11:23;;;;;;;2.70;2.50;;;16.70;91.60;;;;;;6152594;23;20258;-88
2021/07/14 07:13:50;;;;;;;3.38;3.08;;;16.70;90.90;;;;;;6150277;23;20238;-88
2021/07/14 07:16:17;;;;;;;4.18;2.13;;;17.10;90.50;;;;;;6152128;23;20570;-89
2021/07/14 07:18:45;;;;;;;2.83;2.15;;;17.30;90.20;;;;;;6152179;23;20226;-88
2021/07/14 07:21:12;;;;;;;3.15;2.20;;;17.30;89.00;;;;;;6152067;23;20270;-88
2021/07/14 07:23:39;;;;;;;3.05;2.30;;;17.40;89.40;;;;;;6151887;23;20282;-89
2021/07/14 07:26:06;;;;;;;2.13;1.92;;;17.70;87.30;;;;;;6150313;23;20230;-91
2021/07/14 07:28:39;;;;;;;2.25;2.00;;;17.80;87.20;;;;;;6141953;23;20701;-89
2021/07/14 07:31:07;;;;;;;2.75;2.25;;;18.00;83.40;;;;;;6150288;23;20234;-90
2021/07/14 07:33:34;;;;;;;3.70;1.83;;;18.20;80.50;;;;;;6150954;23;20223;-89
2021/07/14 07:36:03;;;;;;;2.95;2.20;;;18.40;80.20;;;;;;6151503;23;20243;-89
2021/07/14 07:38:30;;;;;;;2.00;1.88;;;18.50;79.40;;;;;;6148461;23;20282;-89
2021/07/14 07:40:57;;;;;;;3.40;2.10;;;18.80;77.80;;;;;;6148656;23;20182;-89
2021/07/14 07:43:26;;;;;;;2.15;2.00;;;19.10;77.70;;;;;;6151085;23;20679;-90
2021/07/14 07:45:53;;;;;;;2.17;1.95;;;19.10;75.40;;;;;;6151792;23;20754;-89
2021/07/14 07:48:21;;;;;;;3.33;2.55;;;19.10;73.80;;;;;;6149395;23;20238;-89
2021/07/14 07:50:49;;;;;;;2.17;1.98;;;19.40;73.20;;;;;;6153471;23;20262;-90
2021/07/14 07:53:18;;;;;;;2.40;2.08;;;19.40;73.90;;;;;;6151428;23;20205;-90
2021/07/14 07:55:45;;;;;;;3.35;2.10;;;19.40;75.30;;;;;;6153306;23;20525;-90
2021/07/14 07:58:12;;;;;;;3.63;1.90;;;19.50;70.10;;;;;;6151564;23;20599;-89
2021/07/14 08:00:39;;;;;;;2.80;2.17;;;19.40;70.20;;;;;;6149843;23;20557;-87
2021/07/14 08:03:06;;;;;;;3.67;1.95;;;19.10;67.20;;;;;;6153346;23;20295;-88
2021/07/14 08:05:33;;;;;;;3.97;2.40;;;19.10;74.90;;;;;;6154020;23;20719;-88
2021/07/14 08:08:00;;;;;;;3.15;1.95;;;18.80;77.20;;;;;;6151559;23;20203;-87
2021/07/14 08:10:28;;;;;;;2.25;2.05;;;18.90;75.00;;;;;;6152752;23;20253;-88
2021/07/14 08:12:55;;;;;;;4.35;2.40;;;19.10;74.50;;;;;;6153894;23;20294;-88
2021/07/14 08:15:23;;;;;;;2.03;1.70;;;19.20;71.80;;;;;;6152020;23;20258;-88
2021/07/14 08:17:50;;;;;;;5.10;1.90;;;19.30;75.00;;;;;;6153527;23;20259;-88
2021/07/14 08:20:17;;;;;;;1.95;1.75;;;19.40;72.10;;;;;;6158738;23;20207;-87
2021/07/14 08:22:44;;;;;;;2.38;1.85;;;19.50;69.30;;;;;;6152890;23;20249;-85
2021/07/14 08:25:12;;;;;;;2.20;2.00;;;19.60;66.90;;;;;;6150346;23;20258;-88
2021/07/14 08:27:42;;;;;;;3.72;1.70;;;19.60;67.30;;;;;;6152325;23;20274;-87
2021/07/14 08:30:11;;;;;;;2.13;1.92;;;19.70;67.80;;;;;;6151529;23;20180;-88
2021/07/14 08:32:38;;;;;;;2.63;1.92;;;19.70;67.50;;;;;;6151233;23;20206;-88
2021/07/14 08:35:07;;;;;;;3.25;1.90;;;20.20;66.60;;;;;;6150059;23;20205;-88
2021/07/14 08:37:34;;;;;;;2.35;1.90;;;20.30;60.70;;;;;;6149968;23;20580;-89
2021/07/14 08:40:02;;;;;;;5.55;1.90;;;20.20;63.30;;;;;;6151360;23;20199;-88
2021/07/14 08:42:29;;;;;;;2.13;1.80;;;20.50;61.80;;;;;;6151472;23;20679;-88
2021/07/14 08:44:57;;;;;;;2.10;2.00;;;20.30;60.70;;;;;;6153650;23;20263;-88
2021/07/14 08:47:25;;;;;;;3.13;2.08;;;20.40;60.60;;;;;;6150113;23;20168;-88
2021/07/14 08:49:52;;;;;;;2.95;1.98;;;20.50;59.10;;;;;;6155499;23;20242;-88
2021/07/14 08:52:20;;;;;;;3.65;1.90;;;20.40;56.20;;;;;;6152149;23;20230;-88
2021/07/14 08:54:47;;;;;;;2.97;1.90;;;20.40;59.10;;;;;;6158207;23;20732;-87
2021/07/14 08:57:15;;;;;;;3.10;2.10;;;20.50;59.40;;;;;;6156889;23;20175;-87
2021/07/14 08:59:43;;;;;;;2.33;1.90;;;20.70;56.60;;;;;;6156922;23;20231;-86
2021/07/14 09:02:13;;;;;;;1.98;1.77;;;20.80;56.60;;;;;;6156487;23;20278;-87
2021/07/14 09:04:42;;;;;;;2.00;1.60;;;20.70;57.60;;;;;;6158573;23;20666;-86
2021/07/14 09:07:15;;;;;;;2.20;2.00;;;20.50;59.90;;;;;;6153648;23;20274;-87
2021/07/14 09:09:43;;;;;;;3.65;1.92;;;20.40;59.90;;;;;;6156557;23;20625;-86
2021/07/14 09:12:11;;;;;;;3.13;1.90;;;20.40;59.30;;;;;;6155275;23;20195;-87
2021/07/14 09:14:40;;;;;;;2.53;2.33;;;20.60;60.40;;;;;;6150669;23;20203;-89
2021/07/14 09:17:43;;;;;;;2.10;1.92;;;20.70;56.60;;;;;;6153992;23;20206;-88
2021/07/14 09:20:12;;;;;;;2.15;1.88;;;21.00;58.00;;;;;;6153219;23;20266;-88
2021/07/14 09:22:40;;;;;;;2.53;2.33;;;21.00;57.80;;;;;;6148599;23;20282;-89
2021/07/14 09:25:13;;;;;;;2.50;1.98;;;21.20;55.20;;;;;;6151292;23;20251;-88
2021/07/14 09:27:52;;;;;;;5.40;2.25;;;20.80;56.60;;;;;;6150054;23;20273;-88
2021/07/14 09:30:20;;;;;;;4.28;2.20;;;20.70;56.50;;;;;;6150016;23;20250;-87
2021/07/14 09:32:52;;;;;;;3.97;2.30;;;20.50;56.30;;;;;;6151377;23;20206;-87
2021/07/14 09:35:27;;;;;;;3.25;2.25;;;20.40;56.30;;;;;;6151658;23;20187;-87
2021/07/14 09:37:54;;;;;;;4.07;3.47;;;20.70;59.00;;;;;;6135518;23;20289;-90
2021/07/14 09:40:22;;;;;;;2.67;2.47;;;21.00;56.90;;;;;;6150060;23;20511;-85
2021/07/14 09:42:55;;;;;;;3.10;2.13;;;21.40;57.20;;;;;;6150966;23;20502;-87
2021/07/14 09:45:40;;;;;;;2.10;1.90;;;21.60;56.10;;;;;;6144675;23;20531;-87
2021/07/14 09:48:11;;;;;;;1.73;1.63;;;22.00;52.60;;;;;;6144482;23;20277;-88
2021/07/14 09:50:40;;;;;;;5.50;2.35;;;21.90;49.80;;;;;;6148574;23;20246;-89
2021/07/14 09:53:10;;;;;;;2.50;2.30;;;21.70;50.00;;;;;;6134561;23;20289;-89
2021/07/14 09:55:41;;;;;;;3.28;2.28;;;21.30;52.50;;;;;;6149304;23;20194;-87
2021/07/14 09:58:12;;;;;;;3.75;3.38;;;20.60;56.50;;;;;;6148413;23;20584;-87
2021/07/14 10:00:49;;;;;;;2.72;2.10;;;20.30;58.70;;;;;;6149127;23;20654;-86
2021/07/14 10:03:23;;;;;;;3.03;1.88;;;19.80;60.30;;;;;;6154418;23;20226;-87
2021/07/14 10:05:50;;;;;;;2.05;1.90;;;19.60;66.60;;;;;;6156068;23;20242;-87
2021/07/14 10:08:20;;;;;;;2.08;1.88;;;19.40;66.60;;;;;;6151902;23;20278;-87
2021/07/14 10:10:48;;;;;;;3.53;2.25;;;19.40;67.50;;;;;;6153924;23;20258;-88
2021/07/14 10:13:16;;;;;;;1.73;1.63;;;19.20;68.50;;;;;;6150012;23;20655;-87
2021/07/14 10:15:43;;;;;;;5.18;2.10;;;19.00;73.00;;;;;;6154248;23;20691;-87
2021/07/14 10:18:13;;;;;;;3.03;2.10;;;18.70;75.00;;;;;;6153265;23;20209;-87
2021/07/14 10:20:44;;;;;;;2.50;2.00;;;18.60;76.90;;;;;;6153075;23;20175;-88
2021/07/14 10:23:14;;;;;;;2.55;2.20;;;18.50;77.10;;;;;;6152919;23;20234;-89
2021/07/14 10:25:44;;;;;;;2.38;2.17;;;18.30;76.90;;;;;;6155119;23;20229;-91
2021/07/14 10:28:12;;;;;;;3.03;2.10;;;18.20;78.50;;;;;;6153382;23;20255;-86
2021/07/14 10:30:41;;;;;;;2.28;2.08;;;18.30;79.60;;;;;;6154164;23;20203;-86
2021/07/14 10:33:10;;;;;;;2.08;1.88;;;18.40;78.60;;;;;;6153586;23;20203;-88
2021/07/14 10:35:39;;;;;;;3.85;2.10;;;18.50;78.70;;;;;;6151656;23;20689;-89
2021/07/14 10:38:15;;;;;;;4.82;1.98;;;18.50;78.30;;;;;;6150994;23;20274;-90
2021/07/14 10:40:44;;;;;;;2.20;2.00;;;18.40;79.70;;;;;;6154728;23;20185;-90
2021/07/14 10:43:13;;;;;;;2.33;2.05;;;18.40;79.70;;;;;;6154102;23;20205;-90
2021/07/14 10:45:41;;;;;;;3.40;2.20;;;18.30;80.40;;;;;;6152284;23;20211;-90
2021/07/14 10:48:09;;;;;;;2.10;1.80;;;18.00;79.40;;;;;;6153683;23;20207;-89
2021/07/14 10:50:37;;;;;;;2.40;2.20;;;18.10;81.30;;;;;;6153595;23;20255;-90
2021/07/14 10:53:05;;;;;;;2.90;1.98;;;18.10;80.50;;;;;;6150512;23;20274;-90
2021/07/14 10:55:36;;;;;;;3.70;2.00;;;18.20;79.50;;;;;;6153722;23;20205;-89
2021/07/14 10:58:06;;;;;;;2.85;2.30;;;18.10;79.50;;;;;;6154610;23;20219;-90
2021/07/14 11:00:38;;;;;;;2.83;1.83;;;18.10;79.50;;;;;;6154947;23;20170;-90
2021/07/14 11:03:05;;;;;;;2.47;2.15;;;18.10;80.40;;;;;;6156812;23;20511;-90
2021/07/14 11:05:34;;;;;;;3.03;2.10;;;17.90;82.00;;;;;;6157659;23;20631;-88
2021/07/14 11:08:01;;;;;;;2.28;1.98;;;17.90;82.20;;;;;;6152255;23;20718;-89
2021/07/14 11:10:33;;;;;;;1.85;1.75;;;18.00;81.00;;;;;;6153517;23;20174;-89
2021/07/14 11:13:17;;;;;;;2.58;1.80;;;18.10;79.50;;;;;;6152544;23;20698;-89
2021/07/14 11:15:46;;;;;;;2.67;2.38;;;18.20;79.50;;;;;;6151459;23;20285;-87
2021/07/14 11:18:35;;;;;;;3.97;2.45;;;18.30;79.60;;;;;;6152453;23;20207;-90
2021/07/14 11:21:03;;;;;;;2.75;2.10;;;18.40;79.70;;;;;;6151631;23;20163;-89
2021/07/14 11:23:30;;;;;;;5.63;2.00;;;18.30;79.70;;;;;;6151283;23;20286;-89
2021/07/14 11:25:59;;;;;;;2.50;2.08;;;18.50;79.80;;;;;;6150786;23;20257;-89
2021/07/14 11:28:29;;;;;;;3.70;2.30;;;18.80;77.50;;;;;;6150864;23;20306;-89
2021/07/14 11:30:58;;;;;;;2.67;2.15;;;18.80;76.70;;;;;;6150371;23;20229;-89
2021/07/14 11:33:33;;;;;;;3.15;2.25;;;19.00;77.20;;;;;;6153229;23;20274;-89
2021/07/14 11:36:05;;;;;;;5.78;2.70;;;19.10;76.30;;;;;;6150664;23;20270;-89
2021/07/14 11:38:43;;;;;;;2.72;2.00;;;19.30;75.00;;;;;;6148111;23;20207;-90
2021/07/14 11:41:23;;;;;;;3.53;2.00;;;19.60;71.40;;;;;;6155973;23;20194;-85
2021/07/14 11:44:38;;;;;;;2.97;1.70;;;19.90;69.60;;;;;;6158303;23;20548;-85
2021/07/14 11:47:32;;;;;;;2.45;2.08;;;20.30;60.40;;;;;;6154313;23;20194;-93
2021/07/14 11:49:59;;;;;;;2.60;2.40;;;21.00;59.40;;;;;;6152352;23;20570;-86
2021/07/14 11:52:41;;;;;;;2.50;2.30;;;21.20;57.00;;;;;;6149456;23;20202;-87
2021/07/14 11:55:39;;;;;;;1.95;1.80;;;21.20;55.00;;;;;;6153093;23;20237;-88
2021/07/14 11:58:05;;;;;;;1.92;1.83;;;21.00;56.80;;;;;;6032702;23;20209;-86
2021/07/14 12:00:35;;;;;;;5.65;2.00;;;20.80;56.60;;;;;;6125568;23;20222;-87
2021/07/14 12:03:05;;;;;;;2.20;2.10;;;20.60;56.40;;;;;;6155371;23;20217;-86
2021/07/14 12:05:34;;;;;;;3.10;2.20;;;20.30;58.30;;;;;;6157292;23;20179;-86
2021/07/14 12:08:11;;;;;;;4.15;2.28;;;20.20;60.60;;;;;;6155691;23;20277;-86
2021/07/14 12:10:39;;;;;;;2.45;2.22;;;19.90;62.30;;;;;;6157968;23;20197;-87
2021/07/14 12:13:07;;;;;;;3.97;2.25;;;19.90;65.60;;;;;;6156290;23;20825;-89
2021/07/14 12:15:44;;;;;;;2.05;1.90;;;19.90;61.90;;;;;;6153886;23;20285;-87
2021/07/14 12:18:12;;;;;;;5.65;2.00;;;19.80;62.20;;;;;;6151831;23;20582;-86
2021/07/14 12:20:47;;;;;;;2.50;1.95;;;19.70;67.00;;;;;;6151575;23;20164;-86
2021/07/14 12:23:15;;;;;;;2.53;2.30;;;19.60;68.40;;;;;;6152857;23;20208;-88
2021/07/14 12:25:42;;;;;;;4.47;2.10;;;19.40;70.70;;;;;;6155479;23;20485;-88
2021/07/14 12:28:10;;;;;;;2.80;2.00;;;19.30;72.90;;;;;;6153510;23;20199;-86
2021/07/14 12:30:46;;;;;;;4.95;2.42;;;19.20;74.70;;;;;;6153476;23;20211;-88
2021/07/14 12:33:14;;;;;;;2.85;2.65;;;19.30;73.60;;;;;;6152011;23;20211;-88
2021/07/14 12:35:41;;;;;;;3.03;2.53;;;19.20;76.20;;;;;;6154539;23;20271;-86
2021/07/14 12:38:10;;;;;;;3.78;2.65;;;18.80;74.30;;;;;;6152005;23;20203;-86
2021/07/14 12:40:38;;;;;;;2.65;2.40;;;18.90;73.20;;;;;;6154340;23;20178;-85
2021/07/14 12:43:09;;;;;;;4.05;2.20;;;18.80;77.70;;;;;;6154940;23;20934;-88
2021/07/14 12:45:37;;;;;;;5.10;2.30;;;18.70;77.80;;;;;;6152024;23;20186;-90
2021/07/14 12:48:07;;;;;;;2.33;2.13;;;18.60;78.30;;;;;;6152565;23;20215;-89
2021/07/14 12:50:35;;;;;;;4.57;2.30;;;18.50;78.30;;;;;;6153723;23;20179;-88
2021/07/14 12:53:04;;;;;;;2.33;2.13;;;18.40;79.70;;;;;;6151558;23;20666;-89
2021/07/14 12:55:32;;;;;;;6.32;2.40;;;18.30;79.60;;;;;;6151712;23;20191;-88
2021/07/14 12:58:05;;;;;;;5.13;2.70;;;18.20;83.20;;;;;;6152810;23;20207;-89
2021/07/14 13:00:32;;;;;;;3.35;2.33;;;18.20;84.30;;;;;;6152907;23;20249;-90
2021/07/14 13:03:03;;;;;;;2.90;2.17;;;18.00;84.50;;;;;;6154717;23;20253;-89
2021/07/14 13:05:34;;;;;;;7.45;2.30;;;18.00;86.00;;;;;;6156393;23;20262;-88
2021/07/14 13:08:08;;;;;;;2.35;2.10;;;17.90;87.30;;;;;;6153484;23;20275;-89
2021/07/14 13:10:36;;;;;;;2.95;2.28;;;17.90;89.10;;;;;;6155129;23;20175;-90
2021/07/14 13:13:04;;;;;;;2.60;2.40;;;17.80;88.90;;;;;;6154863;23;20279;-90
2021/07/14 13:15:31;;;;;;;2.45;2.25;;;17.70;90.00;;;;;;6153467;23;20284;-90
2021/07/14 13:18:02;;;;;;;3.20;2.53;;;17.70;90.70;;;;;;6153018;23;20274;-88
2021/07/14 13:20:39;;;;;;;5.55;2.30;;;17.60;90.80;;;;;;6153114;23;20218;-89
2021/07/14 13:23:07;;;;;;;2.53;2.28;;;17.70;91.40;;;;;;6150101;23;20203;-88
2021/07/14 13:25:42;;;;;;;5.00;2.90;;;17.80;91.80;;;;;;6152611;23;20672;-90
2021/07/14 13:28:20;;;;;;;5.15;3.08;;;17.80;90.60;;;;;;6152291;23;20229;-88
2021/07/14 13:30:52;;;;;;;4.30;2.60;;;17.80;91.20;;;;;;6152723;23;20791;-90
2021/07/14 13:33:25;;;;;;;5.82;2.90;;;17.90;91.10;;;;;;6151453;23;20222;-89
2021/07/14 13:35:54;;;;;;;2.90;2.60;;;18.00;90.80;;;;;;6152456;23;20266;-89
2021/07/14 13:38:42;;;;;;;4.00;2.70;;;18.10;90.50;;;;;;6149882;23;20534;-89
2021/07/14 13:41:34;;;;;;;2.70;2.50;;;18.10;90.20;;;;;;6149990;23;20182;-89
2021/07/14 13:44:03;;;;;;;3.50;2.60;;;18.20;89.60;;;;;;6147903;23;20203;-88
2021/07/14 13:46:32;;;;;;;4.38;2.83;;;18.00;91.00;;;;;;6156575;23;20227;-89
2021/07/14 13:49:08;;;;;;;5.30;3.10;;;18.00;91.20;;;;;;6151789;23;20211;-90
2021/07/14 13:51:41;;;;;;;3.35;3.05;;;18.10;90.00;;;;;;6156227;23;20202;-90
2021/07/14 13:54:20;;;;;;;2.90;2.60;;;18.00;89.70;;;;;;6149144;23;20282;-90
2021/07/14 13:56:48;;;;;;;4.28;2.67;;;18.20;88.80;;;;;;6152449;23;20199;-90
2021/07/14 13:59:26;;;;;;;3.05;2.47;;;18.30;90.00;;;;;;6149119;23;20294;-89
2021/07/14 14:01:58;;;;;;;2.85;2.65;;;18.40;89.00;;;;;;6156016;23;20199;-90
2021/07/14 14:04:25;;;;;;;2.78;2.58;;;18.50;88.90;;;;;;6153947;23;20213;-89
2021/07/14 14:06:54;;;;;;;3.58;2.65;;;18.50;87.60;;;;;;6155201;23;20441;-89
2021/07/14 14:09:22;;;;;;;5.65;2.65;;;18.40;88.70;;;;;;6151089;23;20806;-89
2021/07/14 14:11:50;;;;;;;3.17;2.40;;;18.50;89.70;;;;;;6153315;23;20258;-89
2021/07/14 14:14:28;;;;;;;3.70;2.38;;;18.50;89.00;;;;;;6156918;23;20666;-89
2021/07/14 14:16:55;;;;;;;5.13;2.75;;;18.50;88.00;;;;;;6155077;23;20255;-89
2021/07/14 14:19:22;;;;;;;3.85;2.67;;;18.60;85.60;;;;;;6152749;23;20266;-89
2021/07/14 14:21:56;;;;;;;3.65;2.40;;;18.70;83.60;;;;;;6153607;23;20615;-89
2021/07/14 14:24:23;;;;;;;3.20;2.50;;;18.70;83.70;;;;;;6151540;23;20203;-88
2021/07/14 14:26:52;;;;;;;2.72;2.53;;;19.00;82.80;;;;;;6152082;23;20168;-90
2021/07/14 14:29:20;;;;;;;3.42;2.35;;;19.10;80.20;;;;;;6150685;23;20598;-88
2021/07/14 14:31:48;;;;;;;3.05;2.30;;;19.40;80.40;;;;;;6151138;23;20195;-90
2021/07/14 14:34:15;;;;;;;3.63;2.50;;;19.60;80.60;;;;;;6153480;23;20278;-90
2021/07/14 14:36:43;;;;;;;5.35;2.53;;;19.60;78.50;;;;;;6161937;23;20195;-87
2021/07/14 14:39:38;;;;;;;2.25;2.05;;;19.70;78.00;;;;;;6160756;23;20564;-87
2021/07/14 14:42:05;;;;;;;3.00;2.20;;;19.80;77.80;;;;;;6162747;23;20186;-86
2021/07/14 14:44:44;;;;;;;3.25;2.20;;;19.90;77.50;;;;;;6161836;23;20233;-86
2021/07/14 14:47:11;;;;;;;6.20;2.47;;;20.00;76.40;;;;;;6161656;23;20203;-88
2021/07/14 14:49:38;;;;;;;3.83;2.30;;;20.00;74.70;;;;;;6161363;23;20278;-86
2021/07/14 14:52:13;;;;;;;3.08;2.40;;;20.00;72.30;;;;;;6161698;23;20199;-87
2021/07/14 14:54:46;;;;;;;3.22;2.30;;;19.90;73.60;;;;;;6161157;23;20227;-86
2021/07/14 15:00:35;;;;;;;3.30;2.20;;;20.00;75.20;;;;;;6161394;23;20187;-86
2021/07/14 15:13:35;;;;;;;5.70;2.22;;;19.90;73.10;;;;;;6168660;23;20169;-86
2021/07/14 15:20:21;;;;;;;3.30;2.20;;;20.00;70.70;;;;;;6168689;23;20328;-86
2021/07/14 15:22:48;;;;;;;3.08;2.30;;;20.10;70.00;;;;;;6160651;23;20176;-87
2021/07/14 15:31:29;;;;;;;3.38;2.35;;;20.00;69.30;;;;;;6167814;23;20151;-87
2021/07/14 15:37:22;;;;;;;4.88;2.30;;;20.10;68.80;;;;;;6165928;23;20226;-88
2021/07/14 15:39:51;;;;;;;2.92;2.28;;;20.30;69.50;;;;;;6117733;23;20223;-88
2021/07/14 15:42:18;;;;;;;2.67;2.08;;;20.30;64.50;;;;;;6139167;23;20249;-88
2021/07/14 15:45:10;;;;;;;2.78;2.30;;;20.40;65.50;;;;;;6120090;23;20203;-88
2021/07/14 16:38:33;;;;;;;2.25;2.00;;;18.40;76.40;;;;;;6172596;23;20171;-89
2021/07/14 16:44:57;;;;;;;1.90;1.80;;;17.90;79.30;;;;;;6162530;23;20221;-89
2021/07/14 17:18:02;;;;;;;2.15;1.80;;;18.50;78.60;;;;;;6164511;23;20233;-88
2021/07/14 17:30:51;;;;;;;2.25;1.70;;;18.40;77.10;;;;;;6158989;23;20163;-89
2021/07/14 17:33:38;;;;;;;1.95;1.85;;;18.50;78.30;;;;;;6157143;23;20686;-89
2021/07/14 17:36:15;;;;;;;2.65;1.90;;;18.70;77.00;;;;;;6158648;23;20187;-88
2021/07/14 17:38:45;;;;;;;3.90;1.80;;;18.80;77.00;;;;;;6157880;23;20666;-89
2021/07/14 17:41:31;;;;;;;2.17;1.90;;;18.90;76.60;;;;;;6160065;23;20545;-89
2021/07/14 17:44:10;;;;;;;4.40;1.90;;;18.80;75.10;;;;;;6157671;23;20242;-88
2021/07/14 17:46:42;;;;;;;2.65;1.80;;;18.80;75.80;;;;;;6156647;23;20197;-89
2021/07/14 17:49:11;;;;;;;1.98;1.88;;;18.80;73.20;;;;;;6157201;23;20226;-88
2021/07/14 17:51:54;;;;;;;4.90;1.60;;;18.90;73.80;;;;;;6158294;23;20160;-89
2021/07/14 17:54:21;;;;;;;1.73;1.63;;;18.80;74.80;;;;;;6158456;23;20635;-89
2021/07/14 17:56:48;;;;;;;2.15;1.67;;;18.80;75.40;;;;;;6158649;23;20273;-88
2021/07/14 17:59:15;;;;;;;2.65;1.90;;;18.80;72.40;;;;;;6158517;23;20684;-88
2021/07/14 18:01:43;;;;;;;3.70;1.60;;;18.80;73.80;;;;;;6158672;23;20176;-89
2021/07/14 18:04:12;;;;;;;2.33;1.63;;;18.80;71.90;;;;;;6163434;23;20495;-89
2021/07/14 18:06:43;;;;;;;3.10;1.80;;;18.60;72.60;;;;;;6157594;23;20246;-90
2021/07/14 18:12:44;;;;;;;1.73;1.63;;;18.50;71.60;;;;;;6158002;23;20517;-88
2021/07/14 18:19:04;;;;;;;2.65;1.83;;;18.20;74.70;;;;;;6155296;23;20674;-87
2021/07/14 18:21:32;;;;;;;2.80;1.85;;;18.10;74.90;;;;;;6158700;23;20262;-88
2021/07/14 18:24:22;;;;;;;2.53;1.90;;;18.00;76.40;;;;;;6158043;23;20278;-90
2021/07/14 18:27:18;;;;;;;2.45;1.60;;;17.90;77.80;;;;;;6158477;23;20168;-86
2021/07/14 18:29:49;;;;;;;1.70;1.60;;;17.90;75.90;;;;;;6158883;23;20250;-88
2021/07/14 18:32:19;;;;;;;1.80;1.65;;;17.90;76.80;;;;;;6160075;23;20529;-87
2021/07/14 18:34:46;;;;;;;1.80;1.70;;;17.80;75.60;;;;;;6156672;23;20230;-89
2021/07/14 18:38:01;;;;;;;2.05;1.70;;;17.70;77.20;;;;;;6158632;23;20270;-88
2021/07/14 18:47:18;;;;;;;2.58;1.70;;;17.60;79.10;;;;;;6160208;23;20165;-88
2021/07/14 19:00:00;;;;;;;1.80;1.70;;;17.40;79.50;;;;;;6156950;23;20160;-89
2021/07/14 19:02:28;;;;;;;2.00;1.75;;;17.30;82.00;;;;;;6129262;23;20186;-89
2021/07/14 19:11:50;;;;;;;2.80;1.85;;;17.20;88.80;;;;;;6158786;23;20160;-88
2021/07/14 19:14:40;;;;;;;2.08;1.98;;;17.10;90.00;;;;;;6158089;23;20255;-90
2021/07/14 19:17:07;;;;;;;2.25;2.05;;;17.00;90.80;;;;;;6157966;23;20266;-87
2021/07/14 19:19:36;;;;;;;3.47;1.95;;;17.00;91.00;;;;;;6160142;23;20238;-87
2021/07/14 19:22:03;;;;;;;3.40;2.20;;;17.00;91.00;;;;;;6162694;23;20185;-88
2021/07/14 19:24:31;;;;;;;3.75;2.10;;;16.90;91.00;;;;;;6162666;23;20242;-87
2021/07/14 19:26:58;;;;;;;3.55;1.77;;;16.90;91.90;;;;;;6156943;23;20630;-87
2021/07/14 19:29:25;;;;;;;1.90;1.80;;;16.90;91.90;;;;;;6156136;23;20226;-88
2021/07/14 19:31:52;;;;;;;2.03;1.83;;;16.70;91.90;;;;;;6156837;23;20250;-88
2021/07/14 19:34:19;;;;;;;2.08;1.80;;;16.70;92.00;;;;;;6130984;23;20227;-88
2021/07/14 19:36:48;;;;;;;2.42;2.22;;;16.60;93.10;;;;;;6129231;23;20203;-88
2021/07/14 19:43:11;;;;;;;2.28;2.08;;;16.40;93.50;;;;;;6156500;23;20237;-89
